Time;durP1;ratioP1;P1;durP2;ratioP2;P2;SDS_P1;SDS_P2;PMS_P1;PMS_P2;Temp;Humidity;BMP_temperature;BMP_pressure;BME280_temperature;BME280_humidity;BME280_pressure;Samples;Min_cycle;Max_cycle;Signal;HPM_P1;HPM_P2
2023/11/22 00:02:02;;;;;;;6.63;5.20;;;;;;;5.28;73.93;102085.47;5073533;28;20673;-83
2023/11/22 00:04:29;;;;;;;3.93;3.60;;;;;;;5.21;75.21;102092.16;5072637;28;20210;-81
2023/11/22 00:06:55;;;;;;;5.37;4.93;;;;;;;5.14;74.79;102080.78;5072981;28;20216;-83
2023/11/22 00:09:23;;;;;;;5.27;4.77;;;;;;;5.26;75.20;102067.31;5072911;28;20219;-82
2023/11/22 00:11:50;;;;;;;5.10;4.33;;;;;;;5.26;75.54;102061.25;5072875;28;20228;-82
2023/11/22 00:14:16;;;;;;;5.10;4.57;;;;;;;5.23;76.39;102058.56;5073103;28;20554;-82
2023/11/22 00:16:43;;;;;;;5.03;4.53;;;;;;;5.23;75.65;102056.84;5072868;28;20202;-82
2023/11/22 00:19:09;;;;;;;4.70;4.20;;;;;;;5.17;75.04;102070.53;5073600;28;20199;-82
2023/11/22 00:21:36;;;;;;;6.03;4.50;;;;;;;5.15;74.74;102076.47;5071538;28;20723;-83
2023/11/22 00:24:04;;;;;;;4.93;4.00;;;;;;;5.13;74.69;102096.25;5076124;28;20219;-82
2023/11/22 00:26:32;;;;;;;4.57;4.20;;;;;;;5.13;74.48;102099.72;5086458;28;20244;-83
2023/11/22 00:28:59;;;;;;;4.30;3.90;;;;;;;5.14;74.63;102101.47;5087677;28;20211;-81
2023/11/22 00:31:25;;;;;;;4.73;3.90;;;;;;;5.09;74.79;102091.81;5090149;28;20233;-81
2023/11/22 00:33:52;;;;;;;4.00;3.30;;;;;;;5.02;75.23;102089.88;5091838;28;20205;-80
2023/11/22 00:36:18;;;;;;;4.03;3.67;;;;;;;5.08;75.02;102075.41;5089670;28;20211;-81
2023/11/22 00:38:45;;;;;;;3.90;3.47;;;;;;;5.03;74.69;102083.88;5077520;28;20285;-81
2023/11/22 00:41:11;;;;;;;4.57;3.50;;;;;;;5.06;74.22;102091.75;5077370;28;20314;-80
2023/11/22 00:43:39;;;;;;;4.13;3.83;;;;;;;5.10;74.65;102091.88;5076552;28;20206;-81
2023/11/22 00:46:06;;;;;;;3.70;3.40;;;;;;;5.16;74.65;102094.63;5076851;28;20817;-80
2023/11/22 00:48:33;;;;;;;3.53;3.30;;;;;;;5.09;75.18;102102.16;5077010;28;20225;-82
2023/11/22 00:50:59;;;;;;;5.10;3.53;;;;;;;5.06;75.56;102082.25;5075779;28;20229;-80
2023/11/22 00:53:26;;;;;;;5.47;3.70;;;;;;;4.99;75.66;102080.31;5076152;28;20227;-81
2023/11/22 00:55:52;;;;;;;6.40;3.77;;;;;;;5.07;75.44;102080.53;5076053;28;20206;-81
2023/11/22 00:58:19;;;;;;;4.17;3.77;;;;;;;5.04;75.19;102083.91;5076825;28;20202;-82
2023/11/22 01:00:47;;;;;;;3.90;3.60;;;;;;;5.08;75.90;102075.41;5076032;28;20232;-82
2023/11/22 01:03:14;;;;;;;4.17;3.77;;;;;;;5.01;75.52;102083.81;5076697;28;20714;-83
2023/11/22 01:05:42;;;;;;;8.27;3.90;;;;;;;4.94;75.71;102080.16;5076053;28;20196;-81
2023/11/22 01:08:08;;;;;;;4.60;4.20;;;;;;;4.89;75.68;102086.03;5075578;28;20574;-83
2023/11/22 01:10:35;;;;;;;3.80;3.50;;;;;;;4.80;75.92;102096.06;5076900;28;20249;-82
2023/11/22 01:13:01;;;;;;;5.70;3.77;;;;;;;4.77;75.76;102091.69;5076869;28;20198;-82
2023/11/22 01:15:28;;;;;;;4.00;3.70;;;;;;;4.73;75.99;102097.59;5077412;28;20237;-82
2023/11/22 01:17:56;;;;;;;4.10;3.73;;;;;;;4.67;76.52;102087.06;5075701;28;20288;-82
2023/11/22 01:20:23;;;;;;;4.63;4.23;;;;;;;4.72;76.55;102088.09;5075841;28;20233;-81
2023/11/22 01:22:49;;;;;;;5.00;4.50;;;;;;;4.72;76.57;102095.88;5075677;28;20231;-81
2023/11/22 01:25:16;;;;;;;3.80;3.50;;;;;;;4.67;76.62;102093.13;5076566;28;20207;-81
2023/11/22 01:27:42;;;;;;;3.87;3.57;;;;;;;4.63;76.83;102092.97;5075904;28;20206;-81
2023/11/22 01:30:09;;;;;;;4.37;3.50;;;;;;;4.68;76.68;102076.78;5076111;28;20239;-82
2023/11/22 01:32:36;;;;;;;3.93;3.60;;;;;;;4.74;76.22;102079.56;5066657;28;20202;-80
2023/11/22 01:35:05;;;;;;;8.63;3.60;;;;;;;4.84;75.77;102085.03;5075443;28;20210;-81
2023/11/22 01:37:32;;;;;;;5.53;3.40;;;;;;;4.85;75.51;102108.34;5074798;28;20588;-80
2023/11/22 01:39:58;;;;;;;4.17;3.27;;;;;;;4.76;75.81;102128.75;5074688;28;20724;-79
2023/11/22 01:42:25;;;;;;;3.87;3.33;;;;;;;4.69;76.01;102121.63;5072575;28;20222;-79
2023/11/22 01:44:52;;;;;;;4.00;3.70;;;;;;;4.77;75.62;102123.59;5074786;28;20198;-79
2023/11/22 01:47:19;;;;;;;4.10;3.70;;;;;;;4.75;76.16;102124.41;5075797;28;20618;-80
2023/11/22 01:49:46;;;;;;;3.53;3.23;;;;;;;4.60;75.72;102122.22;5075155;28;20208;-80
2023/11/22 01:52:14;;;;;;;4.17;3.77;;;;;;;4.56;76.51;102110.88;5075164;28;20255;-81
2023/11/22 01:54:42;;;;;;;4.00;3.60;;;;;;;4.48;76.26;102106.25;5075403;28;20679;-80
2023/11/22 01:57:10;;;;;;;3.97;3.63;;;;;;;4.42;76.78;102096.63;5075469;28;20675;-81
2023/11/22 01:59:37;;;;;;;3.90;3.50;;;;;;;4.47;77.12;102068.31;5074929;28;20667;-79
2023/11/22 02:02:04;;;;;;;4.57;3.30;;;;;;;4.43;77.56;102058.72;5074358;28;20234;-81
2023/11/22 02:04:30;;;;;;;5.37;3.87;;;;;;;4.43;77.29;102054.41;5074941;28;20541;-80
2023/11/22 02:06:57;;;;;;;3.70;3.40;;;;;;;4.41;77.16;102053.50;5073890;28;20216;-81
2023/11/22 02:09:25;;;;;;;4.13;3.77;;;;;;;4.41;77.34;102062.97;5074351;28;20591;-80
2023/11/22 02:11:52;;;;;;;4.27;3.87;;;;;;;4.33;77.74;102065.28;5074980;28;20740;-79
2023/11/22 02:14:18;;;;;;;4.90;3.83;;;;;;;4.35;78.01;102054.16;5075115;28;20210;-81
2023/11/22 02:16:45;;;;;;;3.87;3.57;;;;;;;4.32;77.97;102051.50;5073644;28;20201;-80
2023/11/22 02:19:16;;;;;;;4.40;3.57;;;;;;;4.24;78.30;102052.97;5075966;28;20737;-81
2023/11/22 02:21:42;;;;;;;3.80;3.40;;;;;;;4.32;78.14;102051.50;5072840;28;20261;-80
2023/11/22 02:24:10;;;;;;;3.60;3.30;;;;;;;4.29;78.22;102046.22;5074155;28;20221;-80
2023/11/22 02:26:38;;;;;;;4.10;3.70;;;;;;;4.35;78.10;102043.81;5075858;28;20215;-79
2023/11/22 02:29:04;;;;;;;3.90;3.60;;;;;;;4.43;78.25;102036.31;5074210;28;20214;-81
2023/11/22 02:31:31;;;;;;;4.33;3.87;;;;;;;4.38;78.94;102017.22;5074814;28;20230;-80
2023/11/22 02:33:57;;;;;;;3.90;3.60;;;;;;;4.36;78.75;102012.00;5075806;28;20681;-81
2023/11/22 02:36:24;;;;;;;3.97;3.63;;;;;;;4.37;78.35;102021.47;5074025;28;20206;-80
2023/11/22 02:38:51;;;;;;;4.23;3.83;;;;;;;4.45;77.86;102023.44;5075094;28;20706;-81
2023/11/22 02:41:19;;;;;;;3.63;3.33;;;;;;;4.44;77.79;102027.75;5074434;28;20252;-81
2023/11/22 02:43:46;;;;;;;4.23;3.60;;;;;;;4.37;78.07;102034.41;5074318;28;20246;-81
2023/11/22 02:46:12;;;;;;;3.83;3.47;;;;;;;4.31;78.21;102028.19;5074932;28;20211;-80
2023/11/22 02:48:39;;;;;;;4.97;3.80;;;;;;;4.33;78.54;102031.69;5074647;28;20203;-81
2023/11/22 02:51:06;;;;;;;4.43;4.07;;;;;;;4.34;78.56;102030.84;5073858;28;20689;-80
2023/11/22 02:53:33;;;;;;;4.07;3.77;;;;;;;4.23;78.68;102030.50;5073443;28;20199;-81
2023/11/22 02:56:00;;;;;;;3.50;3.10;;;;;;;4.25;78.74;102028.84;5075234;28;20226;-81
2023/11/22 02:58:28;;;;;;;3.30;3.00;;;;;;;4.12;78.90;102031.84;5073862;28;20205;-81
2023/11/22 03:00:57;;;;;;;3.80;3.37;;;;;;;4.21;78.73;102021.81;5073856;28;20225;-82
2023/11/22 03:03:23;;;;;;;4.27;3.87;;;;;;;4.21;78.90;102032.16;5074895;28;20221;-81
2023/11/22 03:05:50;;;;;;;3.50;3.07;;;;;;;4.25;78.63;102046.06;5074272;28;20225;-82
2023/11/22 03:08:17;;;;;;;3.37;3.07;;;;;;;4.23;78.36;102058.94;5073333;28;20293;-81
2023/11/22 03:10:43;;;;;;;3.63;3.33;;;;;;;4.18;78.91;102063.97;5073872;28;20226;-81
2023/11/22 03:13:10;;;;;;;4.10;3.70;;;;;;;4.18;78.99;102063.06;5073723;28;20198;-81
2023/11/22 03:15:38;;;;;;;4.00;3.70;;;;;;;4.21;78.92;102060.59;5074122;28;20206;-81
2023/11/22 03:18:06;;;;;;;4.47;3.40;;;;;;;4.11;79.08;102069.75;5073691;28;20775;-81
2023/11/22 03:20:32;;;;;;;4.87;3.83;;;;;;;4.21;78.89;102080.41;5072380;28;20226;-81
2023/11/22 03:22:59;;;;;;;4.57;3.87;;;;;;;4.12;79.10;102079.28;5073526;28;20908;-81
2023/11/22 03:25:26;;;;;;;3.73;3.43;;;;;;;4.15;78.62;102079.34;5073336;28;20778;-82
2023/11/22 03:27:53;;;;;;;4.83;3.70;;;;;;;4.11;79.05;102087.84;5072864;28;20260;-81
2023/11/22 03:30:19;;;;;;;3.60;3.30;;;;;;;4.06;79.33;102091.06;5073957;28;20234;-82
2023/11/22 03:32:48;;;;;;;4.17;3.80;;;;;;;4.09;79.71;102073.97;5074124;28;20203;-81
2023/11/22 03:35:14;;;;;;;3.87;3.47;;;;;;;4.13;79.33;102080.13;5073046;28;20214;-81
2023/11/22 03:37:41;;;;;;;4.13;3.73;;;;;;;4.19;78.65;102082.94;5064057;28;20194;-81
2023/11/22 03:40:09;;;;;;;4.23;3.83;;;;;;;4.17;78.87;102082.88;5074355;28;20224;-82
2023/11/22 03:42:36;;;;;;;4.00;3.70;;;;;;;4.19;78.51;102082.94;5073530;28;20301;-81
2023/11/22 03:45:03;;;;;;;3.83;3.20;;;;;;;4.18;78.60;102087.22;5074680;28;20267;-81
2023/11/22 03:47:29;;;;;;;3.87;3.30;;;;;;;4.08;78.79;102105.81;5073874;28;20204;-82
2023/11/22 03:49:57;;;;;;;4.07;3.67;;;;;;;4.07;77.63;102116.09;5073794;28;20225;-81
2023/11/22 03:52:24;;;;;;;4.67;3.97;;;;;;;4.01;78.99;102118.47;5072859;28;20211;-81
2023/11/22 03:54:50;;;;;;;3.33;3.03;;;;;;;4.02;78.73;102105.59;5074037;28;20213;-81
2023/11/22 03:57:16;;;;;;;3.80;3.50;;;;;;;4.01;78.34;102121.06;5073548;28;20225;-81
2023/11/22 03:59:43;;;;;;;3.90;3.60;;;;;;;3.97;78.19;102133.84;5073876;28;20291;-82
2023/11/22 04:02:09;;;;;;;3.50;3.20;;;;;;;4.00;77.98;102130.50;5073736;28;20201;-82
2023/11/22 04:04:39;;;;;;;3.90;3.60;;;;;;;3.98;78.21;102145.06;5075178;28;20257;-82
2023/11/22 04:07:07;;;;;;;5.53;3.97;;;;;;;3.93;78.14;102147.50;5077562;28;20234;-82
2023/11/22 04:09:33;;;;;;;4.03;3.63;;;;;;;3.97;78.11;102140.75;5078947;28;20206;-82
2023/11/22 04:12:00;;;;;;;4.30;3.90;;;;;;;3.95;77.80;102143.25;5077611;28;20205;-82
2023/11/22 04:14:27;;;;;;;4.30;3.90;;;;;;;3.82;78.78;102146.22;5078101;28;20199;-81
2023/11/22 04:16:53;;;;;;;6.57;4.13;;;;;;;3.90;78.67;102137.03;5079123;28;20240;-81
2023/11/22 04:19:20;;;;;;;4.40;4.00;;;;;;;3.91;78.65;102137.94;5078981;28;20199;-83
2023/11/22 04:21:46;;;;;;;4.37;3.97;;;;;;;3.82;78.92;102142.75;5078195;28;20251;-83
2023/11/22 04:24:14;;;;;;;4.40;3.63;;;;;;;3.95;78.38;102139.81;5078859;28;20227;-81
2023/11/22 04:26:41;;;;;;;6.27;3.27;;;;;;;3.89;78.38;102144.75;5079325;28;20208;-82
2023/11/22 04:29:07;;;;;;;3.73;3.43;;;;;;;3.73;79.04;102156.22;5079687;28;20210;-82
2023/11/22 04:31:33;;;;;;;5.57;3.93;;;;;;;3.80;78.53;102150.44;5079590;28;20233;-79
2023/11/22 04:34:00;;;;;;;4.07;3.50;;;;;;;3.78;78.95;102158.13;5072671;28;20202;-81
2023/11/22 04:36:27;;;;;;;3.60;3.30;;;;;;;3.86;78.55;102153.25;5079182;28;20237;-81
2023/11/22 04:38:53;;;;;;;5.40;3.63;;;;;;;3.86;78.39;102165.28;5080197;28;20206;-82
2023/11/22 04:41:22;;;;;;;3.47;3.17;;;;;;;3.96;77.73;102170.88;5080338;28;20255;-81
2023/11/22 04:43:49;;;;;;;3.57;3.27;;;;;;;3.95;77.86;102176.84;5079667;28;20226;-81
2023/11/22 04:46:15;;;;;;;3.70;3.37;;;;;;;3.83;77.99;102185.88;5081103;28;20700;-81
2023/11/22 04:48:44;;;;;;;3.27;2.97;;;;;;;3.77;77.38;102192.56;5081027;28;20203;-81
2023/11/22 04:51:11;;;;;;;3.53;3.23;;;;;;;3.69;77.67;102196.56;5079715;28;20294;-81
2023/11/22 04:53:37;;;;;;;3.43;3.13;;;;;;;3.69;77.99;102198.25;5081191;28;20202;-81
2023/11/22 04:56:05;;;;;;;3.93;3.50;;;;;;;3.76;77.67;102187.31;5080946;28;20216;-81
2023/11/22 04:58:33;;;;;;;3.70;3.37;;;;;;;3.82;77.72;102194.41;5079476;28;20237;-80
2023/11/22 05:01:01;;;;;;;4.63;3.43;;;;;;;3.88;77.23;102203.28;5079073;28;20226;-81
2023/11/22 05:03:28;;;;;;;3.37;3.07;;;;;;;3.83;77.06;102214.28;5079330;28;20293;-81
2023/11/22 05:05:54;;;;;;;3.53;3.23;;;;;;;3.83;77.24;102219.44;5078437;28;20685;-81
2023/11/22 05:08:20;;;;;;;3.30;3.03;;;;;;;3.75;77.82;102214.84;5079919;28;20458;-80
2023/11/22 05:10:47;;;;;;;3.47;3.17;;;;;;;3.83;77.57;102212.56;5080293;28;20233;-82
2023/11/22 05:13:13;;;;;;;3.97;3.53;;;;;;;3.81;77.52;102213.34;5080042;28;20203;-82
2023/11/22 05:15:41;;;;;;;5.53;3.30;;;;;;;3.64;77.92;102210.97;5080085;28;20202;-80
2023/11/22 05:18:07;;;;;;;5.93;3.33;;;;;;;3.62;77.57;102199.72;5081729;28;20629;-81
2023/11/22 05:20:34;;;;;;;3.87;3.43;;;;;;;3.63;77.30;102205.75;5080748;28;20235;-82
2023/11/22 05:23:01;;;;;;;3.67;3.33;;;;;;;3.66;77.64;102211.91;5080927;28;20557;-82
2023/11/22 05:25:27;;;;;;;3.47;3.17;;;;;;;3.57;77.18;102215.03;5080795;28;20559;-80
2023/11/22 05:27:53;;;;;;;3.30;3.00;;;;;;;3.57;77.12;102209.00;5079991;28;20206;-80
2023/11/22 05:30:21;;;;;;;3.40;3.10;;;;;;;3.50;77.64;102213.03;5079088;28;20235;-82
2023/11/22 05:32:49;;;;;;;3.50;2.97;;;;;;;3.37;77.93;102198.78;5080899;28;20212;-82
2023/11/22 05:35:16;;;;;;;3.67;3.00;;;;;;;3.38;77.94;102203.09;5080263;28;20219;-81
2023/11/22 05:37:42;;;;;;;3.60;3.30;;;;;;;3.34;77.73;102206.41;5079481;28;20205;-81
2023/11/22 05:40:10;;;;;;;3.30;3.00;;;;;;;3.27;78.52;102201.84;5080211;28;20223;-81
2023/11/22 05:42:37;;;;;;;3.90;3.13;;;;;;;3.29;78.37;102196.72;5080732;28;20677;-82
2023/11/22 05:45:05;;;;;;;5.37;3.17;;;;;;;3.25;78.48;102188.00;5080394;28;21032;-82
2023/11/22 05:47:32;;;;;;;3.43;3.13;;;;;;;3.24;78.63;102173.31;5081664;28;20212;-80
2023/11/22 05:49:59;;;;;;;3.27;2.93;;;;;;;3.28;78.28;102171.75;5081579;28;20226;-81
2023/11/22 05:52:26;;;;;;;4.13;3.63;;;;;;;3.23;77.86;102191.31;5081176;28;20256;-81
2023/11/22 05:54:52;;;;;;;3.37;2.87;;;;;;;3.26;77.91;102189.72;5083501;28;20640;-81
2023/11/22 05:57:19;;;;;;;4.90;3.67;;;;;;;3.23;77.83;102197.38;5081142;28;20214;-80
2023/11/22 05:59:46;;;;;;;3.50;3.20;;;;;;;3.13;77.78;102216.75;5081553;28;20209;-79
2023/11/22 06:02:13;;;;;;;5.23;3.00;;;;;;;3.07;77.71;102224.25;5082344;28;20233;-81
2023/11/22 06:04:40;;;;;;;4.57;3.23;;;;;;;2.95;78.65;102218.56;5082955;28;20242;-82
2023/11/22 06:07:07;;;;;;;4.17;3.20;;;;;;;3.02;78.33;102225.75;5081789;28;20205;-82
2023/11/22 06:09:34;;;;;;;3.07;2.87;;;;;;;3.11;77.85;102241.63;5083158;28;20208;-81
2023/11/22 06:12:00;;;;;;;3.53;3.27;;;;;;;3.08;78.07;102254.38;5082108;28;20215;-83
2023/11/22 06:14:27;;;;;;;4.03;3.63;;;;;;;3.00;78.85;102242.88;5082914;28;20201;-81
2023/11/22 06:16:53;;;;;;;3.70;3.03;;;;;;;3.05;78.72;102237.91;5083774;28;20214;-81
2023/11/22 06:19:19;;;;;;;3.27;2.97;;;;;;;2.94;77.75;102256.41;5083770;28;20237;-79
2023/11/22 06:21:46;;;;;;;3.90;3.10;;;;;;;2.94;77.57;102263.25;5081831;28;20230;-80
2023/11/22 06:24:15;;;;;;;3.43;3.13;;;;;;;2.93;78.23;102272.72;5087442;28;20246;-80
2023/11/22 06:26:42;;;;;;;3.10;2.90;;;;;;;2.90;78.04;102269.97;5083591;28;20206;-81
2023/11/22 06:29:09;;;;;;;3.27;2.97;;;;;;;2.85;79.18;102248.25;5080210;28;20204;-81
2023/11/22 06:31:35;;;;;;;3.83;3.43;;;;;;;2.91;79.28;102238.19;5079470;28;20229;-82
2023/11/22 06:34:02;;;;;;;3.50;3.20;;;;;;;2.84;78.99;102231.03;5081751;28;20199;-82
2023/11/22 06:36:29;;;;;;;3.70;3.40;;;;;;;2.84;78.63;102245.66;5080257;28;20228;-83
2023/11/22 06:38:56;;;;;;;3.23;3.00;;;;;;;2.89;78.09;102245.00;5077767;28;20436;-80
2023/11/22 06:41:23;;;;;;;4.23;3.13;;;;;;;2.85;77.97;102260.28;5081039;28;20225;-79
2023/11/22 06:43:50;;;;;;;3.70;3.40;;;;;;;2.80;77.74;102270.41;5078403;28;20230;-79
2023/11/22 06:46:16;;;;;;;4.03;2.90;;;;;;;2.86;77.40;102277.53;5080943;28;20726;-79
2023/11/22 06:48:43;;;;;;;4.33;3.47;;;;;;;2.80;77.32;102272.13;5099652;22;20208;-79
2023/11/22 06:51:10;;;;;;;3.60;3.30;;;;;;;2.78;77.96;102274.63;5027045;28;20236;-81
2023/11/22 06:53:36;;;;;;;7.40;3.40;;;;;;;2.71;78.46;102264.84;5038855;28;20206;-81
2023/11/22 06:56:03;;;;;;;3.77;3.27;;;;;;;2.71;79.49;102237.38;5038112;28;20214;-81
2023/11/22 06:58:31;;;;;;;3.43;3.10;;;;;;;2.65;80.93;102201.03;5033744;28;20239;-80
2023/11/22 07:00:57;;;;;;;4.20;3.43;;;;;;;2.73;79.89;102185.88;5034987;28;20237;-81
2023/11/22 07:03:24;;;;;;;3.80;3.50;;;;;;;2.82;79.41;102183.69;5036777;28;20232;-81
2023/11/22 07:05:50;;;;;;;6.33;3.40;;;;;;;2.81;79.24;102187.06;5036466;28;20214;-79
2023/11/22 07:08:17;;;;;;;5.10;3.63;;;;;;;2.89;78.49;102208.88;5036369;28;20238;-80
2023/11/22 07:10:44;;;;;;;4.30;3.10;;;;;;;2.75;78.36;102222.91;5041641;28;20246;-80
2023/11/22 07:13:11;;;;;;;9.43;4.30;;;;;;;2.83;78.23;102226.69;5035574;28;20234;-80
2023/11/22 07:15:39;;;;;;;6.73;4.10;;;;;;;2.87;77.76;102244.03;5035071;28;20209;-80
2023/11/22 07:18:06;;;;;;;5.10;3.67;;;;;;;2.78;78.33;102244.56;5035453;28;20207;-81
2023/11/22 07:20:32;;;;;;;4.10;3.70;;;;;;;2.81;78.19;102242.91;5034235;28;20262;-79
2023/11/22 07:23:00;;;;;;;3.30;3.00;;;;;;;2.77;78.35;102242.81;5034730;28;20212;-78
2023/11/22 07:25:26;;;;;;;3.60;3.30;;;;;;;2.77;78.83;102231.59;5035674;28;20224;-79
2023/11/22 07:27:54;;;;;;;5.10;3.27;;;;;;;2.83;79.21;102213.78;5036606;28;20211;-80
2023/11/22 07:30:22;;;;;;;3.57;3.27;;;;;;;2.84;79.29;102212.13;5041601;28;20224;-80
2023/11/22 07:32:51;;;;;;;3.17;2.93;;;;;;;2.86;78.71;102203.63;5035611;28;20212;-80
2023/11/22 07:35:19;;;;;;;4.80;3.40;;;;;;;2.96;78.69;102202.28;5038050;28;20302;-80
2023/11/22 07:37:47;;;;;;;6.90;3.27;;;;;;;2.88;78.44;102203.69;5038428;28;20200;-81
2023/11/22 07:40:14;;;;;;;3.60;3.07;;;;;;;2.91;78.98;102199.50;5047597;28;20331;-80
2023/11/22 07:42:40;;;;;;;3.83;3.53;;;;;;;3.02;78.31;102193.94;5038354;28;20202;-79
2023/11/22 07:45:11;;;;;;;3.40;3.10;;;;;;;3.01;78.72;102198.19;5036239;28;20693;-83
2023/11/22 07:47:39;;;;;;;3.23;2.93;;;;;;;3.11;78.27;102199.44;5037292;28;20701;-82
2023/11/22 07:50:09;;;;;;;3.57;3.27;;;;;;;3.12;78.27;102198.63;5034639;28;20317;-80
2023/11/22 07:52:36;;;;;;;4.27;2.80;;;;;;;3.20;78.59;102197.25;5030399;28;20203;-82
2023/11/22 07:55:03;;;;;;;3.17;2.83;;;;;;;3.28;78.98;102195.84;5036281;28;20207;-80
2023/11/22 07:57:29;;;;;;;3.23;2.63;;;;;;;3.37;77.83;102215.97;5039436;28;20207;-80
2023/11/22 07:59:56;;;;;;;2.97;2.77;;;;;;;3.36;77.95;102237.44;5040437;28;20218;-82
2023/11/22 08:02:23;;;;;;;3.00;2.70;;;;;;;3.42;77.59;102258.31;5040655;28;20199;-81
2023/11/22 08:04:51;;;;;;;7.27;3.20;;;;;;;3.49;77.45;102267.19;5045228;28;20751;-80
2023/11/22 08:07:18;;;;;;;3.60;2.60;;;;;;;3.48;77.98;102255.97;5039968;28;20793;-80
2023/11/22 08:09:45;;;;;;;5.40;4.93;;;;;;;3.54;77.98;102260.50;5035701;28;20699;-81
2023/11/22 08:12:13;;;;;;;6.43;5.10;;;;;;;3.61;77.48;102259.94;5037635;28;20210;-77
2023/11/22 08:14:40;;;;;;;5.17;3.90;;;;;;;3.64;77.46;102262.63;5040917;28;20210;-80
2023/11/22 08:17:06;;;;;;;5.47;5.00;;;;;;;3.64;77.71;102279.84;5033835;28;20203;-80
2023/11/22 08:19:33;;;;;;;4.97;4.57;;;;;;;3.68;77.89;102284.28;5036700;28;20552;-82
2023/11/22 08:21:59;;;;;;;4.63;4.23;;;;;;;3.61;78.25;102283.19;5032941;28;20207;-80
2023/11/22 08:24:27;;;;;;;4.97;3.90;;;;;;;3.72;77.82;102283.59;5026504;28;20233;-80
2023/11/22 08:26:53;;;;;;;3.60;3.30;;;;;;;3.71;77.62;102295.63;5025918;28;20286;-79
2023/11/22 08:29:20;;;;;;;3.83;3.30;;;;;;;3.84;77.42;102301.25;5030393;28;20242;-79
2023/11/22 08:31:48;;;;;;;3.17;2.87;;;;;;;3.86;76.88;102321.16;5032270;28;20200;-82
2023/11/22 08:34:15;;;;;;;4.00;2.17;;;;;;;3.88;76.79;102335.00;5032875;28;20199;-80
2023/11/22 08:36:41;;;;;;;3.20;2.80;;;;;;;3.88;76.93;102355.69;5032909;28;20282;-79
2023/11/22 08:39:08;;;;;;;3.10;2.60;;;;;;;3.90;76.78;102359.22;5032474;28;20240;-80
2023/11/22 08:41:37;;;;;;;3.17;2.90;;;;;;;3.89;76.47;102377.25;5032810;28;20205;-80
2023/11/22 08:44:04;;;;;;;4.37;2.80;;;;;;;3.90;76.53;102387.63;5034154;28;20212;-81
2023/11/22 08:46:30;;;;;;;3.90;3.20;;;;;;;3.90;76.16;102397.09;5013983;28;20204;-80
2023/11/22 08:48:57;;;;;;;3.50;3.20;;;;;;;3.88;76.89;102391.84;5014973;28;20233;-80
2023/11/22 08:51:23;;;;;;;5.80;4.00;;;;;;;3.94;76.10;102384.38;5030890;28;20247;-81
2023/11/22 08:53:50;;;;;;;4.27;3.40;;;;;;;3.99;76.26;102392.28;5041399;28;20211;-80
2023/11/22 08:56:16;;;;;;;3.47;3.17;;;;;;;3.93;76.22;102395.50;5041048;28;20208;-80
2023/11/22 08:58:44;;;;;;;4.53;3.30;;;;;;;4.03;75.31;102383.84;5040122;28;20213;-79
2023/11/22 09:01:10;;;;;;;3.30;2.90;;;;;;;4.02;74.95;102396.69;5037947;28;20200;-78
2023/11/22 09:03:38;;;;;;;4.07;3.57;;;;;;;4.09;75.47;102414.22;5037227;28;20698;-78
2023/11/22 09:06:06;;;;;;;3.73;3.27;;;;;;;4.12;75.11;102417.81;5033218;28;20233;-80
2023/11/22 09:08:33;;;;;;;3.40;3.10;;;;;;;4.11;75.46;102416.03;5035310;28;20693;-79
2023/11/22 09:10:59;;;;;;;4.13;3.20;;;;;;;4.10;74.86;102421.13;5034319;28;20223;-79
2023/11/22 09:13:25;;;;;;;4.13;3.40;;;;;;;4.13;74.80;102419.56;5034937;28;20269;-79
2023/11/22 09:15:53;;;;;;;3.77;3.43;;;;;;;4.18;74.05;102430.97;5038397;28;20696;-80
2023/11/22 09:18:21;;;;;;;3.87;3.30;;;;;;;4.22;74.40;102455.22;5040225;28;20205;-79
2023/11/22 09:20:48;;;;;;;4.20;3.83;;;;;;;4.20;73.67;102474.06;5040630;28;20229;-80
2023/11/22 09:23:15;;;;;;;3.87;3.43;;;;;;;4.11;74.74;102484.94;5041088;28;20231;-80
2023/11/22 09:25:41;;;;;;;4.30;3.90;;;;;;;4.17;74.26;102488.63;5035662;28;20219;-79
2023/11/22 09:28:08;;;;;;;4.00;3.70;;;;;;;4.14;73.51;102477.28;5037377;28;20203;-79
2023/11/22 09:30:37;;;;;;;4.10;3.70;;;;;;;4.14;73.28;102491.13;5035651;28;20327;-80
2023/11/22 09:33:07;;;;;;;3.90;3.60;;;;;;;4.14;72.97;102493.69;5036297;28;20644;-80
2023/11/22 09:35:33;;;;;;;4.50;4.10;;;;;;;4.14;73.16;102500.53;5036126;28;20231;-80
2023/11/22 09:38:00;;;;;;;5.47;5.07;;;;;;;4.18;72.95;102508.50;5035401;28;20641;-80
2023/11/22 09:40:28;;;;;;;5.87;4.17;;;;;;;4.20;73.59;102505.97;5035132;28;20229;-80
2023/11/22 09:42:55;;;;;;;4.93;4.43;;;;;;;4.21;72.87;102479.31;5035512;28;20208;-79
2023/11/22 09:45:22;;;;;;;5.80;5.30;;;;;;;4.24;71.02;102504.38;5034907;28;20223;-79
2023/11/22 09:47:48;;;;;;;5.43;4.93;;;;;;;4.21;69.86;102535.31;5035894;28;20619;-78
2023/11/22 09:50:20;;;;;;;5.70;5.07;;;;;;;4.27;70.08;102551.06;5029514;28;20238;-80
2023/11/22 09:52:51;;;;;;;5.87;5.37;;;;;;;4.26;69.83;102565.69;5034445;28;20207;-79
2023/11/22 09:55:19;;;;;;;5.90;5.40;;;;;;;4.29;69.16;102555.47;5034867;28;20364;-80
2023/11/22 09:57:46;;;;;;;10.57;5.33;;;;;;;4.26;68.34;102578.63;5035070;28;20202;-80
2023/11/22 10:00:16;;;;;;;5.30;4.80;;;;;;;4.24;67.38;102588.00;5034369;28;20227;-80
2023/11/22 10:02:43;;;;;;;4.63;4.23;;;;;;;4.20;66.59;102639.50;5035017;28;20632;-80
2023/11/22 10:05:09;;;;;;;6.17;5.57;;;;;;;4.21;67.69;102673.16;5034926;28;20230;-80
2023/11/22 10:07:38;;;;;;;6.40;5.80;;;;;;;4.30;67.83;102673.59;5035134;28;20227;-80
2023/11/22 10:10:06;;;;;;;5.27;4.87;;;;;;;4.32;67.96;102678.78;5034837;28;20231;-79
2023/11/22 10:12:36;;;;;;;5.30;4.80;;;;;;;4.35;65.79;102712.53;5035128;28;20199;-79
2023/11/22 10:15:12;;;;;;;4.97;4.57;;;;;;;4.36;65.23;102738.47;5035628;28;20651;-78
2023/11/22 10:17:38;;;;;;;5.60;5.10;;;;;;;4.36;65.66;102754.00;5035338;28;20558;-79
2023/11/22 10:20:10;;;;;;;5.00;4.60;;;;;;;4.36;65.05;102772.09;5034651;28;20286;-79
2023/11/22 10:22:45;;;;;;;5.13;4.70;;;;;;;4.37;65.51;102799.69;5034600;28;20210;-79
2023/11/22 10:25:12;;;;;;;5.30;4.80;;;;;;;4.44;64.71;102797.38;5035129;28;20228;-81
2023/11/22 10:27:40;;;;;;;4.90;4.50;;;;;;;4.45;63.72;102801.75;5034783;28;20203;-80
2023/11/22 10:30:09;;;;;;;4.60;4.20;;;;;;;4.44;63.42;102838.75;5042198;28;20227;-78
2023/11/22 10:32:38;;;;;;;5.40;4.90;;;;;;;4.45;63.02;102875.03;5035097;28;20204;-79
2023/11/22 10:35:07;;;;;;;5.07;4.57;;;;;;;4.50;62.69;102872.66;5035108;28;20633;-80
2023/11/22 10:37:33;;;;;;;5.57;5.07;;;;;;;4.55;61.93;102890.16;5042268;28;20203;-80
2023/11/22 10:40:02;;;;;;;5.30;4.80;;;;;;;4.59;62.82;102906.69;5033979;28;20241;-79
2023/11/22 10:42:28;;;;;;;5.40;4.87;;;;;;;4.57;62.25;102919.56;5034610;28;20200;-80
2023/11/22 10:44:57;;;;;;;6.00;4.57;;;;;;;4.54;62.86;102922.03;5034923;28;20236;-79
2023/11/22 10:47:25;;;;;;;5.10;4.70;;;;;;;4.62;63.05;102918.88;5035330;28;20243;-80
2023/11/22 10:49:52;;;;;;;5.17;4.73;;;;;;;4.58;63.26;102907.53;5034184;28;20237;-79
2023/11/22 10:52:20;;;;;;;6.07;5.47;;;;;;;4.67;62.98;102887.22;5034083;28;20301;-79
2023/11/22 10:54:51;;;;;;;6.03;5.47;;;;;;;4.75;63.84;102887.59;5035500;28;20207;-79
2023/11/22 10:57:20;;;;;;;4.73;4.33;;;;;;;4.82;62.33;102881.00;5035276;28;20678;-80
2023/11/22 10:59:54;;;;;;;5.17;4.67;;;;;;;4.87;61.29;102908.81;5033999;28;20246;-79
2023/11/22 11:02:23;;;;;;;5.30;4.80;;;;;;;4.81;61.53;102925.78;5035280;28;20229;-79
2023/11/22 11:04:59;;;;;;;5.07;4.60;;;;;;;4.86;60.67;102930.34;5033623;28;20245;-79
2023/11/22 11:07:31;;;;;;;4.80;4.40;;;;;;;4.87;60.17;102952.81;5034273;28;20206;-79
2023/11/22 11:09:59;;;;;;;5.03;4.50;;;;;;;4.85;60.05;102950.97;5034301;28;20628;-81
2023/11/22 11:12:28;;;;;;;4.83;4.43;;;;;;;4.87;60.43;102957.13;5034006;28;20207;-80
2023/11/22 11:14:54;;;;;;;5.57;4.93;;;;;;;4.84;61.01;102938.88;5033205;28;20215;-79
2023/11/22 11:17:21;;;;;;;5.27;4.70;;;;;;;4.88;61.28;102927.84;5033349;28;20221;-79
2023/11/22 11:19:47;;;;;;;5.23;4.73;;;;;;;4.83;60.52;102937.09;4332025;28;10000743;-80
2023/11/22 11:22:16;;;;;;;4.80;4.40;;;;;;;4.85;60.94;102933.75;5030522;28;20483;-81
2023/11/22 11:24:44;;;;;;;5.50;5.00;;;;;;;4.87;62.40;102895.88;5031863;28;20315;-79
2023/11/22 11:27:11;;;;;;;4.87;4.37;;;;;;;4.89;60.74;102902.00;5030776;28;20210;-80
2023/11/22 11:29:42;;;;;;;5.67;5.17;;;;;;;4.96;60.60;102913.53;5031285;28;20249;-79
2023/11/22 11:32:10;;;;;;;5.53;5.03;;;;;;;5.00;60.37;102927.50;5031639;28;20218;-79
2023/11/22 11:34:49;;;;;;;7.30;5.30;;;;;;;5.00;60.03;102922.31;5032405;28;20213;-79